createdAt,value
2023-01-27T00:00:08.035Z,0
2023-01-27T00:01:48.198Z,0
2023-01-27T00:03:28.414Z,0
2023-01-27T00:05:08.460Z,0
2023-01-27T00:06:48.652Z,0
2023-01-27T00:08:28.722Z,0
2023-01-27T00:10:08.881Z,0
2023-01-27T00:11:49.040Z,0
2023-01-27T00:13:29.169Z,0
2023-01-27T00:15:09.299Z,0
2023-01-27T00:16:49.477Z,0
2023-01-27T00:18:29.605Z,0
2023-01-27T00:20:09.921Z,0
2023-01-27T00:21:49.887Z,0
2023-01-27T00:23:29.993Z,0
2023-01-27T00:25:10.217Z,0
2023-01-27T00:26:50.388Z,0
2023-01-27T00:28:30.514Z,0
2023-01-27T00:30:10.954Z,0
2023-01-27T00:31:50.894Z,0
2023-01-27T00:33:31.007Z,0
2023-01-27T00:35:11.107Z,0
2023-01-27T00:36:51.298Z,0
2023-01-27T00:38:31.476Z,0
2023-01-27T00:40:11.981Z,0
2023-01-27T00:41:51.715Z,0
2023-01-27T00:43:31.847Z,0
2023-01-27T00:45:12.014Z,0
2023-01-27T00:46:52.345Z,0
2023-01-27T00:48:32.351Z,0
2023-01-27T00:50:12.809Z,0
2023-01-27T00:51:52.656Z,0
2023-01-27T00:53:32.844Z,0
2023-01-27T00:55:13.073Z,0
2023-01-27T00:56:53.212Z,0
2023-01-27T00:58:33.366Z,0
2023-01-27T01:00:13.751Z,0
2023-01-27T01:01:53.581Z,0
2023-01-27T01:03:33.699Z,0
2023-01-27T01:05:13.822Z,0
2023-01-27T01:08:34.135Z,0
2023-01-27T01:10:14.574Z,0
2023-01-27T01:11:54.403Z,0
2023-01-27T01:13:34.551Z,0
2023-01-27T01:15:14.798Z,0
2023-01-27T01:16:54.967Z,0
2023-01-27T01:18:35.123Z,0
2023-01-27T01:20:15.338Z,0
2023-01-27T01:21:55.482Z,0
2023-01-27T01:23:35.639Z,0
2023-01-27T01:25:15.838Z,0
2023-01-27T01:26:55.976Z,0
2023-01-27T01:28:36.146Z,0
2023-01-27T01:30:16.307Z,0
2023-01-27T01:31:56.429Z,0
2023-01-27T01:33:36.594Z,0
2023-01-27T01:35:16.768Z,0
2023-01-27T01:36:56.967Z,0
2023-01-27T01:38:37.091Z,0
2023-01-27T01:40:17.285Z,0
2023-01-27T01:41:57.519Z,0
2023-01-27T01:43:37.625Z,0
2023-01-27T01:45:17.811Z,0
2023-01-27T01:46:57.966Z,0
2023-01-27T01:48:38.103Z,0
2023-01-27T01:50:18.217Z,0
2023-01-27T01:51:58.373Z,0
2023-01-27T01:53:38.608Z,0
2023-01-27T01:55:18.784Z,0
2023-01-27T01:56:58.883Z,0
2023-01-27T01:58:39.035Z,0
2023-01-27T02:00:19.191Z,0
2023-01-27T02:01:59.402Z,0
2023-01-27T02:03:39.527Z,0
2023-01-27T02:05:19.672Z,0
2023-01-27T02:06:59.774Z,0
2023-01-27T02:08:39.920Z,0
2023-01-27T02:10:20.087Z,0
2023-01-27T02:12:00.239Z,0
2023-01-27T02:13:40.386Z,0
2023-01-27T02:15:20.510Z,0
2023-01-27T02:17:00.652Z,0
2023-01-27T02:18:40.836Z,0
2023-01-27T02:20:21.006Z,0
2023-01-27T02:22:01.126Z,0
2023-01-27T02:23:41.258Z,0
2023-01-27T02:25:21.423Z,0
2023-01-27T02:27:01.555Z,0
2023-01-27T02:28:41.673Z,0
2023-01-27T02:30:21.894Z,0
2023-01-27T02:32:02.006Z,0
2023-01-27T02:33:42.206Z,0
2023-01-27T02:35:22.366Z,0
2023-01-27T02:37:02.463Z,0
2023-01-27T02:38:42.665Z,0
2023-01-27T02:40:22.799Z,0
2023-01-27T02:42:02.969Z,0
2023-01-27T02:43:43.143Z,0
2023-01-27T02:45:23.287Z,0
2023-01-27T02:47:03.473Z,0
2023-01-27T02:48:43.607Z,0
2023-01-27T02:50:23.794Z,0
2023-01-27T02:52:03.921Z,0
2023-01-27T02:53:44.085Z,0
2023-01-27T02:55:24.250Z,0
2023-01-27T02:57:04.432Z,0
2023-01-27T02:58:44.612Z,0
2023-01-27T03:00:24.733Z,0
2023-01-27T03:02:04.996Z,0
2023-01-27T03:03:45.040Z,0
2023-01-27T03:05:25.158Z,0
2023-01-27T03:07:05.345Z,0
2023-01-27T03:08:45.535Z,0
2023-01-27T03:10:25.705Z,0
2023-01-27T03:12:05.928Z,0
2023-01-27T03:13:46.058Z,0
2023-01-27T03:15:26.291Z,0
2023-01-27T03:17:06.379Z,0
2023-01-27T03:18:46.503Z,0
2023-01-27T03:20:26.656Z,0
2023-01-27T03:22:06.835Z,0
2023-01-27T03:23:46.967Z,0
2023-01-27T03:25:27.141Z,0
2023-01-27T03:27:07.225Z,0
2023-01-27T03:28:47.380Z,0
2023-01-27T03:30:27.568Z,0
2023-01-27T03:32:07.692Z,0
2023-01-27T03:33:47.954Z,0
2023-01-27T03:35:28.041Z,0
2023-01-27T03:37:08.208Z,0
2023-01-27T03:38:48.333Z,0
2023-01-27T03:40:28.511Z,0
2023-01-27T03:42:08.637Z,0
2023-01-27T03:43:48.765Z,0
2023-01-27T03:45:28.900Z,0
2023-01-27T03:47:09.110Z,0
2023-01-27T03:48:49.316Z,0
2023-01-27T03:50:29.509Z,0
2023-01-27T03:52:09.663Z,0
2023-01-27T03:53:49.878Z,0
2023-01-27T03:55:30.132Z,0
2023-01-27T03:57:10.419Z,0
2023-01-27T03:58:50.712Z,0
2023-01-27T04:00:30.776Z,0
2023-01-27T04:02:10.899Z,0
2023-01-27T04:03:51.065Z,0
2023-01-27T04:05:31.211Z,0
2023-01-27T04:07:11.361Z,0
2023-01-27T04:08:51.524Z,0
2023-01-27T04:10:31.660Z,0
2023-01-27T04:12:11.820Z,0
2023-01-27T04:13:51.935Z,0
2023-01-27T04:15:32.094Z,0
2023-01-27T04:17:12.217Z,0
2023-01-27T04:18:52.338Z,0
2023-01-27T04:20:32.462Z,0
2023-01-27T04:22:12.620Z,0
2023-01-27T04:23:52.879Z,0
2023-01-27T04:25:33.005Z,0
2023-01-27T04:27:13.199Z,0
2023-01-27T04:28:53.426Z,0
2023-01-27T04:30:33.630Z,0
2023-01-27T04:32:13.776Z,0
2023-01-27T04:33:53.893Z,0
2023-01-27T04:35:38.896Z,0
2023-01-27T04:37:14.192Z,0
2023-01-27T04:38:54.333Z,0
2023-01-27T04:40:34.467Z,0
2023-01-27T04:42:14.648Z,0
2023-01-27T04:43:54.769Z,0
2023-01-27T04:45:34.915Z,0
2023-01-27T04:47:15.072Z,0
2023-01-27T04:48:55.259Z,0
2023-01-27T04:50:35.410Z,0
2023-01-27T04:52:15.590Z,0
2023-01-27T04:53:55.786Z,0
2023-01-27T04:55:35.977Z,0
2023-01-27T04:57:16.092Z,0
2023-01-27T04:58:56.238Z,0
2023-01-27T05:00:36.354Z,0
2023-01-27T05:02:16.628Z,0
2023-01-27T05:03:56.666Z,0
2023-01-27T05:05:36.882Z,0
2023-01-27T05:07:17.003Z,0
2023-01-27T05:08:57.116Z,0
2023-01-27T05:10:37.260Z,0
2023-01-27T05:12:17.382Z,0
2023-01-27T05:13:57.535Z,0
2023-01-27T05:15:37.729Z,0
2023-01-27T05:17:17.880Z,0
2023-01-27T05:18:58.020Z,0
2023-01-27T05:20:38.153Z,0
2023-01-27T05:22:18.310Z,0
2023-01-27T05:23:58.545Z,0
2023-01-27T05:25:38.649Z,0
2023-01-27T05:27:18.889Z,0
2023-01-27T05:28:59.031Z,0
2023-01-27T05:30:39.241Z,0
2023-01-27T05:32:19.321Z,0
2023-01-27T05:33:59.497Z,0
2023-01-27T05:35:39.610Z,0
2023-01-27T05:37:19.738Z,0
2023-01-27T05:38:59.938Z,0
2023-01-27T05:40:40.061Z,0
2023-01-27T05:42:20.230Z,0
2023-01-27T05:44:00.417Z,0
2023-01-27T05:45:40.507Z,0
2023-01-27T05:47:20.719Z,0
2023-01-27T05:49:00.887Z,0
2023-01-27T05:50:41.017Z,0
2023-01-27T05:52:21.185Z,0
2023-01-27T05:54:01.591Z,0
2023-01-27T05:55:41.558Z,0
2023-01-27T05:57:21.709Z,0
2023-01-27T05:59:01.865Z,0
2023-01-27T06:00:42.115Z,0
2023-01-27T06:02:23.572Z,0
2023-01-27T06:04:02.386Z,0
2023-01-27T06:05:42.503Z,0
2023-01-27T06:07:22.634Z,0
2023-01-27T06:09:02.787Z,0
2023-01-27T06:10:42.901Z,0
2023-01-27T06:12:23.066Z,0
2023-01-27T06:14:03.231Z,0
2023-01-27T06:15:43.350Z,0
2023-01-27T06:17:23.498Z,0
2023-01-27T06:19:03.634Z,0
2023-01-27T06:20:43.751Z,0
2023-01-27T06:22:23.936Z,0
2023-01-27T06:24:04.097Z,0
2023-01-27T06:25:44.221Z,1
2023-01-27T06:27:24.401Z,1
2023-01-27T06:29:04.506Z,0
2023-01-27T06:30:44.826Z,0
2023-01-27T06:32:24.878Z,1
2023-01-27T06:34:05.014Z,1
2023-01-27T06:35:45.173Z,2
2023-01-27T06:37:25.345Z,2
2023-01-27T06:39:05.451Z,4
2023-01-27T06:40:45.580Z,5
2023-01-27T06:42:25.753Z,6
2023-01-27T06:44:05.916Z,7
2023-01-27T06:45:46.059Z,9
2023-01-27T06:47:26.203Z,12
2023-01-27T06:49:06.321Z,15
2023-01-27T06:50:46.528Z,19
2023-01-27T06:52:26.654Z,26
2023-01-27T06:54:06.878Z,33
2023-01-27T06:55:47.096Z,44
2023-01-27T06:57:27.235Z,51
2023-01-27T06:59:07.408Z,67
2023-01-27T07:00:47.527Z,83
2023-01-27T07:02:27.669Z,117
2023-01-27T07:04:07.851Z,138
2023-01-27T07:05:47.959Z,160
2023-01-27T07:07:28.131Z,185
2023-01-27T07:09:08.336Z,216
2023-01-27T07:10:48.522Z,252
2023-01-27T07:12:28.617Z,296
2023-01-27T07:14:10.521Z,347
2023-01-27T07:15:48.897Z,355
2023-01-27T07:17:29.023Z,363
2023-01-27T07:19:09.147Z,421
2023-01-27T07:20:49.281Z,480
2023-01-27T07:22:29.422Z,577
2023-01-27T07:24:09.616Z,664
2023-01-27T07:25:49.716Z,701
2023-01-27T07:27:29.925Z,758
2023-01-27T07:29:10.033Z,835
2023-01-27T07:30:50.196Z,921
2023-01-27T07:32:30.351Z,1094
2023-01-27T07:34:10.652Z,1237
2023-01-27T07:35:50.816Z,1379
2023-01-27T07:37:30.959Z,1533
2023-01-27T07:39:11.129Z,1668
2023-01-27T07:40:51.251Z,1834
2023-01-27T07:42:31.458Z,1933
2023-01-27T07:44:11.608Z,2019
2023-01-27T07:45:51.854Z,2054
2023-01-27T07:47:32.012Z,2100
2023-01-27T07:49:12.129Z,2190
2023-01-27T07:50:52.273Z,2275
2023-01-27T07:52:32.397Z,2358
2023-01-27T07:54:12.598Z,2420
2023-01-27T07:55:52.843Z,2351
2023-01-27T07:57:32.990Z,2515
2023-01-27T07:59:13.109Z,2798
2023-01-27T08:00:53.349Z,3164
2023-01-27T08:02:33.414Z,3398
2023-01-27T08:04:13.531Z,3593
2023-01-27T08:05:53.658Z,3698
2023-01-27T08:07:33.802Z,3876
2023-01-27T08:09:13.901Z,3858
2023-01-27T08:10:54.016Z,4041
2023-01-27T08:12:34.177Z,4536
2023-01-27T08:14:14.343Z,4654
2023-01-27T08:15:54.528Z,4776
2023-01-27T08:17:34.729Z,4906
2023-01-27T08:19:14.908Z,5141
2023-01-27T08:20:55.005Z,4992
2023-01-27T08:22:35.178Z,4863
2023-01-27T08:24:15.371Z,4770
2023-01-27T08:25:55.413Z,5201
2023-01-27T08:27:35.581Z,6185
2023-01-27T08:29:15.745Z,6098
2023-01-27T08:30:55.878Z,5908
2023-01-27T08:32:36.029Z,5570
2023-01-27T08:34:16.145Z,5390
2023-01-27T08:35:56.308Z,5480
2023-01-27T08:37:36.463Z,5189
2023-01-27T08:39:16.620Z,5011
2023-01-27T08:40:56.738Z,4951
2023-01-27T08:42:36.856Z,4920
2023-01-27T08:44:16.979Z,4729
2023-01-27T08:45:57.201Z,4596
2023-01-27T08:47:37.366Z,5174
2023-01-27T08:49:17.553Z,4813
2023-01-27T08:50:57.648Z,4492
2023-01-27T08:52:37.789Z,4896
2023-01-27T08:54:18.044Z,5315
2023-01-27T08:55:58.239Z,5272
2023-01-27T08:57:38.402Z,5933
2023-01-27T08:59:18.553Z,5860
2023-01-27T09:00:58.763Z,6042
2023-01-27T09:02:38.899Z,6218
2023-01-27T09:04:19.146Z,6340
2023-01-27T09:05:59.199Z,6262
2023-01-27T09:07:39.331Z,6314
2023-01-27T09:09:19.470Z,6996
2023-01-27T09:10:59.684Z,7657
2023-01-27T09:12:39.856Z,7742
2023-01-27T09:14:20.018Z,6913
2023-01-27T09:16:00.191Z,5895
2023-01-27T09:17:40.346Z,4833
2023-01-27T09:19:20.496Z,4923
2023-01-27T09:21:00.693Z,4990
2023-01-27T09:22:40.811Z,4682
2023-01-27T09:24:21.013Z,4588
2023-01-27T09:26:01.147Z,3829
2023-01-27T09:27:41.325Z,3697
2023-01-27T09:29:21.459Z,4231
2023-01-27T09:31:01.799Z,5359
2023-01-27T09:32:41.773Z,6270
2023-01-27T09:34:21.941Z,7516
2023-01-27T09:36:02.099Z,8611
2023-01-27T09:37:42.218Z,9275
2023-01-27T09:39:22.360Z,8491
2023-01-27T09:41:02.568Z,8237
2023-01-27T09:42:42.699Z,7551
2023-01-27T09:44:22.831Z,7615
2023-01-27T09:46:03.031Z,7679
2023-01-27T09:47:43.143Z,7378
2023-01-27T09:49:23.276Z,6971
2023-01-27T09:51:04.223Z,6833
2023-01-27T09:52:47.797Z,6710
2023-01-27T09:54:23.807Z,6943
2023-01-27T09:56:04.016Z,6991
2023-01-27T09:57:44.157Z,7617
2023-01-27T09:59:24.307Z,7300
2023-01-27T10:01:04.423Z,7590
2023-01-27T10:02:44.575Z,7696
2023-01-27T10:04:24.805Z,8068
2023-01-27T10:06:04.870Z,7127
2023-01-27T10:07:45.049Z,6114
2023-01-27T10:09:25.225Z,5196
2023-01-27T10:11:05.370Z,4782
2023-01-27T10:12:45.619Z,5046
2023-01-27T10:14:25.722Z,5147
2023-01-27T10:16:05.933Z,4837
2023-01-27T10:17:46.080Z,4120
2023-01-27T10:19:26.217Z,3989
2023-01-27T10:21:06.321Z,4355
2023-01-27T10:22:46.451Z,5061
2023-01-27T10:24:26.612Z,5139
2023-01-27T10:26:06.710Z,4956
2023-01-27T10:27:46.834Z,4795
2023-01-27T10:29:27.013Z,4553
2023-01-27T10:31:07.322Z,4449
2023-01-27T10:32:47.357Z,4213
2023-01-27T10:34:27.565Z,4169
2023-01-27T10:36:07.748Z,4322
2023-01-27T10:37:47.935Z,4479
2023-01-27T10:39:28.125Z,4569
2023-01-27T10:41:08.317Z,4758
2023-01-27T10:42:48.422Z,5316
2023-01-27T10:44:28.630Z,6148
2023-01-27T10:46:08.828Z,6041
2023-01-27T10:47:48.943Z,6099
2023-01-27T10:49:29.115Z,7326
2023-01-27T10:51:09.207Z,7574
2023-01-27T10:52:49.384Z,6104
2023-01-27T10:56:10.152Z,4796
2023-01-27T10:57:49.924Z,4383
2023-01-27T10:59:30.061Z,4207
2023-01-27T11:01:20.783Z,4255
2023-01-27T11:02:50.331Z,4906
2023-01-27T11:04:30.468Z,5419
2023-01-27T11:06:10.575Z,5228
2023-01-27T11:07:50.782Z,4631
2023-01-27T11:09:30.893Z,4899
2023-01-27T11:11:11.027Z,5534
2023-01-27T11:12:51.195Z,5375
2023-01-27T11:14:31.316Z,5715
2023-01-27T11:16:11.492Z,6439
2023-01-27T11:17:51.601Z,7297
2023-01-27T11:19:31.763Z,7615
2023-01-27T11:21:11.973Z,8467
2023-01-27T11:22:52.130Z,9573
2023-01-27T11:24:32.268Z,9952
2023-01-27T11:26:12.455Z,9027
2023-01-27T11:27:52.614Z,7843
2023-01-27T11:29:32.796Z,8389
2023-01-27T11:31:12.976Z,8187
2023-01-27T11:32:53.108Z,7969
2023-01-27T11:34:33.293Z,8964
2023-01-27T11:36:13.451Z,7626
2023-01-27T11:37:58.299Z,7425
2023-01-27T11:39:33.780Z,7130
2023-01-27T11:41:13.905Z,7329
2023-01-27T11:42:54.048Z,7590
2023-01-27T11:44:34.209Z,9003
2023-01-27T11:46:14.394Z,9935
2023-01-27T11:47:54.527Z,10655
2023-01-27T11:49:34.734Z,10760
2023-01-27T11:51:14.822Z,9564
2023-01-27T11:52:54.924Z,9086
2023-01-27T11:54:35.148Z,9901
2023-01-27T11:56:15.937Z,9272
2023-01-27T11:57:55.538Z,9415
2023-01-27T11:59:35.671Z,8791
2023-01-27T12:01:15.824Z,7658
2023-01-27T12:02:55.910Z,7823
2023-01-27T12:04:36.087Z,7938
2023-01-27T12:06:16.192Z,7356
2023-01-27T12:07:56.311Z,7429
2023-01-27T12:09:36.476Z,6881
2023-01-27T12:11:16.671Z,5698
2023-01-27T12:12:56.948Z,5644
2023-01-27T12:14:37.076Z,4988
2023-01-27T12:16:17.259Z,5220
2023-01-27T12:17:57.405Z,5662
2023-01-27T12:19:37.666Z,6614
2023-01-27T12:21:17.849Z,6252
2023-01-27T12:22:58.017Z,5703
2023-01-27T12:24:38.195Z,5102
2023-01-27T12:26:18.362Z,4677
2023-01-27T12:27:58.544Z,4741
2023-01-27T12:29:38.680Z,5111
2023-01-27T12:31:18.932Z,4719
2023-01-27T12:32:58.975Z,4571
2023-01-27T12:34:39.095Z,4926
2023-01-27T12:36:19.215Z,5349
2023-01-27T12:37:59.364Z,5848
2023-01-27T12:39:39.597Z,7094
2023-01-27T12:41:19.681Z,7357
2023-01-27T12:42:59.839Z,7014
2023-01-27T12:44:40.008Z,6742
2023-01-27T12:46:20.214Z,6120
2023-01-27T12:48:00.292Z,4940
2023-01-27T12:49:40.463Z,4728
2023-01-27T12:51:20.576Z,4099
2023-01-27T12:53:00.787Z,2809
2023-01-27T12:54:40.941Z,2468
2023-01-27T12:56:21.124Z,1986
2023-01-27T12:58:01.428Z,1843
2023-01-27T12:59:41.557Z,1956
2023-01-27T13:01:21.695Z,2163
2023-01-27T13:03:01.811Z,2116
2023-01-27T13:04:41.929Z,2032
2023-01-27T13:06:22.048Z,2118
2023-01-27T13:08:02.166Z,2175
2023-01-27T13:09:42.329Z,2149
2023-01-27T13:11:22.480Z,2421
2023-01-27T13:13:02.601Z,2497
2023-01-27T13:14:42.927Z,2670
2023-01-27T13:16:23.037Z,2924
2023-01-27T13:18:03.120Z,3510
2023-01-27T13:19:43.300Z,4580
2023-01-27T13:21:23.439Z,5254
2023-01-27T13:23:03.591Z,5956
2023-01-27T13:24:43.783Z,6516
2023-01-27T13:26:23.895Z,6807
2023-01-27T13:28:04.050Z,8003
2023-01-27T13:29:44.240Z,8784
2023-01-27T13:31:24.493Z,7319
2023-01-27T13:33:04.652Z,6346
2023-01-27T13:34:44.827Z,6409
2023-01-27T13:36:24.976Z,6853
2023-01-27T13:38:05.121Z,7370
2023-01-27T13:39:45.219Z,6076
2023-01-27T13:41:25.359Z,5406
2023-01-27T13:43:05.584Z,6097
2023-01-27T13:44:45.727Z,6780
2023-01-27T13:46:25.985Z,5689
2023-01-27T13:48:06.061Z,5773
2023-01-27T13:49:46.229Z,6206
2023-01-27T13:51:26.388Z,6439
2023-01-27T13:53:06.508Z,6110
2023-01-27T13:54:46.733Z,5812
2023-01-27T13:56:26.895Z,6741
2023-01-27T13:58:07.077Z,7077
2023-01-27T13:59:50.259Z,7409
2023-01-27T14:01:27.401Z,7940
2023-01-27T14:03:07.665Z,7792
2023-01-27T14:04:47.776Z,7982
2023-01-27T14:06:27.831Z,8322
2023-01-27T14:08:07.987Z,8239
2023-01-27T14:09:48.086Z,8448
2023-01-27T14:11:28.276Z,8459
2023-01-27T14:13:08.382Z,8017
2023-01-27T14:14:57.869Z,8836
2023-01-27T14:16:28.667Z,9480
2023-01-27T14:18:11.035Z,8963
2023-01-27T14:19:49.002Z,8553
2023-01-27T14:21:40.269Z,8297
2023-01-27T14:23:09.259Z,8268
2023-01-27T14:24:49.406Z,7249
2023-01-27T14:26:29.562Z,7169
2023-01-27T14:28:12.777Z,6952
2023-01-27T14:29:49.853Z,7275
2023-01-27T14:31:36.511Z,7226
2023-01-27T14:33:16.628Z,6366
2023-01-27T14:34:56.783Z,6543
2023-01-27T14:36:36.928Z,5169
2023-01-27T14:38:17.058Z,4577
2023-01-27T14:39:57.184Z,4125
2023-01-27T14:41:37.361Z,3869
2023-01-27T14:43:17.512Z,3868
2023-01-27T14:45:04.946Z,3571
2023-01-27T14:46:37.829Z,3346
2023-01-27T14:48:17.976Z,3232
2023-01-27T14:49:58.114Z,2944
2023-01-27T14:51:38.272Z,2883
2023-01-27T14:53:18.424Z,2688
2023-01-27T14:54:58.571Z,2621
2023-01-27T14:56:38.741Z,2837
2023-01-27T14:58:18.906Z,3034
2023-01-27T14:59:59.113Z,3088
2023-01-27T15:01:39.245Z,3017
2023-01-27T15:03:19.350Z,2608
2023-01-27T15:04:59.513Z,2289
2023-01-27T15:06:39.626Z,1862
2023-01-27T15:08:19.866Z,1714
2023-01-27T15:10:00.061Z,1785
2023-01-27T15:11:40.205Z,1598
2023-01-27T15:13:20.407Z,1472
2023-01-27T15:15:00.612Z,1305
2023-01-27T15:16:40.824Z,1266
2023-01-27T15:18:21.008Z,1089
2023-01-27T15:20:01.203Z,1029
2023-01-27T15:21:41.321Z,972
2023-01-27T15:23:21.497Z,977
2023-01-27T15:25:01.676Z,1105
2023-01-27T15:26:41.871Z,1133
2023-01-27T15:28:22.033Z,1153
2023-01-27T15:30:02.252Z,1149
2023-01-27T15:31:42.435Z,1092
2023-01-27T15:33:22.499Z,1049
2023-01-27T15:35:02.660Z,919
2023-01-27T15:36:42.818Z,881
2023-01-27T15:38:22.944Z,774
2023-01-27T15:40:05.139Z,710
2023-01-27T15:41:43.341Z,598
2023-01-27T15:43:23.513Z,538
2023-01-27T15:45:03.627Z,494
2023-01-27T15:46:43.742Z,478
2023-01-27T15:48:23.901Z,459
2023-01-27T15:50:04.066Z,406
2023-01-27T15:51:44.207Z,350
2023-01-27T15:53:24.385Z,320
2023-01-27T15:55:04.637Z,268
2023-01-27T15:56:44.800Z,239
2023-01-27T15:58:24.954Z,216
2023-01-27T16:00:05.110Z,173
2023-01-27T16:01:45.247Z,156
2023-01-27T16:03:25.469Z,140
2023-01-27T16:05:05.601Z,128
2023-01-27T16:06:45.790Z,119
2023-01-27T16:08:25.917Z,94
2023-01-27T16:10:06.082Z,73
2023-01-27T16:11:46.202Z,60
2023-01-27T16:13:26.388Z,49
2023-01-27T16:15:06.559Z,44
2023-01-27T16:16:46.730Z,34
2023-01-27T16:18:26.872Z,25
2023-01-27T16:20:07.024Z,18
2023-01-27T16:21:47.213Z,12
2023-01-27T16:23:27.359Z,9
2023-01-27T16:25:07.488Z,7
2023-01-27T16:26:47.653Z,6
2023-01-27T16:28:27.840Z,4
2023-01-27T16:30:07.987Z,3
2023-01-27T16:31:48.194Z,3
2023-01-27T16:33:28.322Z,2
2023-01-27T16:35:08.543Z,2
2023-01-27T16:36:48.679Z,1
2023-01-27T16:38:28.876Z,1
2023-01-27T16:40:09.022Z,1
2023-01-27T16:41:49.183Z,0
2023-01-27T16:43:29.337Z,1
2023-01-27T16:45:12.967Z,0
2023-01-27T16:46:49.602Z,0
2023-01-27T16:48:29.732Z,0
2023-01-27T16:50:09.954Z,0
2023-01-27T16:51:50.068Z,0
2023-01-27T16:53:30.196Z,0
2023-01-27T16:55:10.430Z,0
2023-01-27T16:56:50.609Z,0
2023-01-27T16:58:43.862Z,0
2023-01-27T17:00:10.887Z,0
2023-01-27T17:01:51.072Z,0
2023-01-27T17:03:31.243Z,0
2023-01-27T17:05:11.615Z,0
2023-01-27T17:06:51.488Z,0
2023-01-27T17:08:31.561Z,0
2023-01-27T17:10:15.001Z,0
2023-01-27T17:11:51.831Z,0
2023-01-27T17:13:31.999Z,0
2023-01-27T17:15:12.522Z,0
2023-01-27T17:16:52.436Z,0
2023-01-27T17:18:40.423Z,0
2023-01-27T17:20:12.696Z,0
2023-01-27T17:21:52.838Z,0
2023-01-27T17:23:33.068Z,0
2023-01-27T17:25:16.700Z,0
2023-01-27T17:26:53.409Z,0
2023-01-27T17:28:33.596Z,0
2023-01-27T17:30:13.822Z,0
2023-01-27T17:31:54.149Z,0
2023-01-27T17:33:34.305Z,0
2023-01-27T17:35:15.312Z,0
2023-01-27T17:36:55.262Z,0
2023-01-27T17:38:35.500Z,0
2023-01-27T17:40:15.672Z,0
2023-01-27T17:41:55.883Z,0
2023-01-27T17:43:36.025Z,0
2023-01-27T17:45:16.188Z,0
2023-01-27T17:46:56.354Z,0
2023-01-27T17:48:36.450Z,0
2023-01-27T17:50:16.682Z,0
2023-01-27T17:51:56.843Z,0
2023-01-27T17:53:37.014Z,0
2023-01-27T17:55:17.256Z,0
2023-01-27T17:56:57.504Z,0
2023-01-27T17:58:37.804Z,0
2023-01-27T18:00:18.033Z,0
2023-01-27T18:02:01.244Z,0
2023-01-27T18:03:38.313Z,0
2023-01-27T18:05:18.519Z,0
2023-01-27T18:06:58.671Z,0
2023-01-27T18:08:38.815Z,0
2023-01-27T18:10:18.927Z,0
2023-01-27T18:11:59.128Z,0
2023-01-27T18:13:39.222Z,0
2023-01-27T18:15:19.343Z,0
2023-01-27T18:16:59.523Z,0
2023-01-27T18:18:39.687Z,0
2023-01-27T18:20:19.834Z,0
2023-01-27T18:22:00.048Z,0
2023-01-27T18:23:40.184Z,0
2023-01-27T18:25:20.318Z,0
2023-01-27T18:27:00.469Z,0
2023-01-27T18:28:43.709Z,0
2023-01-27T18:30:20.836Z,0
2023-01-27T18:32:01.069Z,0
2023-01-27T18:33:42.974Z,0
2023-01-27T18:35:21.314Z,0
2023-01-27T18:37:01.438Z,0
2023-01-27T18:38:41.568Z,0
2023-01-27T18:40:21.747Z,0
2023-01-27T18:42:01.899Z,0
2023-01-27T18:43:42.059Z,0
2023-01-27T18:45:22.304Z,0
2023-01-27T18:47:02.444Z,0
2023-01-27T18:48:42.553Z,0
2023-01-27T18:50:22.707Z,0
2023-01-27T18:52:02.808Z,0
2023-01-27T18:53:43.003Z,0
2023-01-27T18:55:23.247Z,0
2023-01-27T18:57:03.445Z,0
2023-01-27T18:58:43.581Z,0
2023-01-27T19:00:23.854Z,0
2023-01-27T19:02:06.974Z,0
2023-01-27T19:03:44.001Z,0
2023-01-27T19:05:24.104Z,0
2023-01-27T19:07:04.243Z,0
2023-01-27T19:08:44.380Z,0
2023-01-27T19:10:24.484Z,0
2023-01-27T19:12:04.635Z,0
2023-01-27T19:13:44.796Z,0
2023-01-27T19:15:24.901Z,0
2023-01-27T19:17:05.012Z,0
2023-01-27T19:18:45.220Z,0
2023-01-27T19:20:25.389Z,0
2023-01-27T19:22:05.540Z,0
2023-01-27T19:23:45.738Z,0
2023-01-27T19:25:25.865Z,0
2023-01-27T19:27:06.040Z,0
2023-01-27T19:28:46.197Z,0
2023-01-27T19:30:26.349Z,0
2023-01-27T19:32:06.609Z,0
2023-01-27T19:33:46.684Z,0
2023-01-27T19:35:26.929Z,0
2023-01-27T19:37:07.058Z,0
2023-01-27T19:38:47.229Z,0
2023-01-27T19:40:27.382Z,0
2023-01-27T19:42:07.510Z,0
2023-01-27T19:43:47.696Z,0
2023-01-27T19:45:27.918Z,0
2023-01-27T19:47:07.924Z,0
2023-01-27T19:48:48.099Z,0
2023-01-27T19:50:28.273Z,0
2023-01-27T19:52:08.434Z,0
2023-01-27T19:53:48.623Z,0
2023-01-27T19:55:28.820Z,0
2023-01-27T19:57:08.999Z,0
2023-01-27T19:58:49.137Z,0
2023-01-27T20:00:29.266Z,0
2023-01-27T20:02:09.403Z,0
2023-01-27T20:03:49.542Z,0
2023-01-27T20:05:29.747Z,0
2023-01-27T20:07:09.868Z,0
2023-01-27T20:08:53.150Z,0
2023-01-27T20:10:30.197Z,0
2023-01-27T20:12:10.352Z,0
2023-01-27T20:13:50.519Z,0
2023-01-27T20:15:30.635Z,0
2023-01-27T20:17:10.732Z,0
2023-01-27T20:18:57.926Z,0
2023-01-27T20:20:31.042Z,0
2023-01-27T20:22:11.173Z,0
2023-01-27T20:23:51.406Z,0
2023-01-27T20:25:31.493Z,0
2023-01-27T20:27:11.622Z,0
2023-01-27T20:28:51.801Z,0
2023-01-27T20:30:32.044Z,0
2023-01-27T20:32:12.167Z,0
2023-01-27T20:33:55.375Z,0
2023-01-27T20:35:32.468Z,0
2023-01-27T20:37:12.624Z,0
2023-01-27T20:38:52.768Z,0
2023-01-27T20:40:32.944Z,0
2023-01-27T20:42:13.096Z,0
2023-01-27T20:43:53.203Z,0
2023-01-27T20:45:33.421Z,0
2023-01-27T20:47:13.518Z,0
2023-01-27T20:48:53.664Z,0
2023-01-27T20:50:33.846Z,0
2023-01-27T20:52:14.014Z,0
2023-01-27T20:53:54.302Z,0
2023-01-27T20:55:34.385Z,0
2023-01-27T20:57:14.538Z,0
2023-01-27T20:58:54.662Z,0
2023-01-27T21:00:34.814Z,0
2023-01-27T21:02:14.957Z,0
2023-01-27T21:03:56.128Z,0
2023-01-27T21:05:38.263Z,0
2023-01-27T21:07:15.354Z,0
2023-01-27T21:08:55.563Z,0
2023-01-27T21:10:35.776Z,0
2023-01-27T21:12:15.892Z,0
2023-01-27T21:13:56.053Z,0
2023-01-27T21:15:36.206Z,0
2023-01-27T21:17:16.340Z,0
2023-01-27T21:18:56.480Z,0
2023-01-27T21:20:36.672Z,0
2023-01-27T21:22:16.827Z,0
2023-01-27T21:23:57.103Z,0
2023-01-27T21:25:37.183Z,0
2023-01-27T21:27:17.383Z,0
2023-01-27T21:28:57.499Z,0
2023-01-27T21:30:37.676Z,0
2023-01-27T21:32:17.854Z,0
2023-01-27T21:33:58.037Z,0
2023-01-27T21:35:38.169Z,0
2023-01-27T21:37:18.345Z,0
2023-01-27T21:38:58.532Z,0
2023-01-27T21:40:38.730Z,0
2023-01-27T21:42:18.880Z,0
2023-01-27T21:43:59.078Z,0
2023-01-27T21:45:39.214Z,0
2023-01-27T21:47:19.400Z,0
2023-01-27T21:48:59.537Z,0
2023-01-27T21:50:39.674Z,0
2023-01-27T21:52:19.779Z,0
2023-01-27T21:53:59.926Z,0
2023-01-27T21:55:40.184Z,0
2023-01-27T21:57:20.358Z,0
2023-01-27T21:59:00.515Z,0
2023-01-27T22:00:40.695Z,0
2023-01-27T22:02:20.803Z,0
2023-01-27T22:04:01.024Z,0
2023-01-27T22:05:41.087Z,0
2023-01-27T22:07:21.285Z,0
2023-01-27T22:09:01.430Z,0
2023-01-27T22:10:41.618Z,0
2023-01-27T22:12:21.862Z,0
2023-01-27T22:14:01.975Z,0
2023-01-27T22:15:42.147Z,0
2023-01-27T22:17:22.519Z,0
2023-01-27T22:19:02.772Z,0
2023-01-27T22:20:42.933Z,0
2023-01-27T22:22:23.059Z,0
2023-01-27T22:24:10.363Z,0
2023-01-27T22:25:43.337Z,0
2023-01-27T22:27:23.457Z,0
2023-01-27T22:29:03.739Z,0
2023-01-27T22:30:43.983Z,0
2023-01-27T22:32:24.221Z,0
2023-01-27T22:34:04.258Z,0
2023-01-27T22:35:44.408Z,0
2023-01-27T22:37:24.562Z,0
2023-01-27T22:39:04.669Z,0
2023-01-27T22:40:44.816Z,0
2023-01-27T22:42:24.976Z,0
2023-01-27T22:44:05.115Z,0
2023-01-27T22:45:45.395Z,0
2023-01-27T22:47:25.411Z,0
2023-01-27T22:49:05.565Z,0
2023-01-27T22:50:45.720Z,0
2023-01-27T22:52:25.869Z,0
2023-01-27T22:54:06.045Z,0
2023-01-27T22:55:46.229Z,0
2023-01-27T22:57:26.440Z,0
2023-01-27T22:59:06.566Z,0
2023-01-27T23:00:46.679Z,0
2023-01-27T23:02:26.980Z,0
2023-01-27T23:04:07.108Z,0
2023-01-27T23:05:47.259Z,0
2023-01-27T23:07:27.424Z,0
2023-01-27T23:09:07.580Z,0
2023-01-27T23:10:47.689Z,0
2023-01-27T23:12:27.868Z,0
2023-01-27T23:14:08.033Z,0
2023-01-27T23:15:48.204Z,0
2023-01-27T23:17:28.331Z,0
2023-01-27T23:19:08.508Z,0
2023-01-27T23:20:48.664Z,0
2023-01-27T23:22:28.827Z,0
2023-01-27T23:24:09.019Z,0
2023-01-27T23:25:49.099Z,0
2023-01-27T23:27:29.218Z,0
2023-01-27T23:29:23.007Z,0
2023-01-27T23:30:49.744Z,0
2023-01-27T23:32:29.724Z,0
2023-01-27T23:34:09.896Z,0
2023-01-27T23:35:50.027Z,0
2023-01-27T23:37:30.174Z,0
2023-01-27T23:39:10.319Z,0
2023-01-27T23:40:50.439Z,0
2023-01-27T23:42:30.636Z,0
2023-01-27T23:44:10.838Z,0